sensor_id;sensor_type;location;lat;lon;timestamp;P1;durP1;ratioP1;P2;durP2;ratioP2
18532;SDS011;9396;51.510;11.934;2023-05-16T00:01:53;9.20;;;6.40;;
18532;SDS011;9396;51.510;11.934;2023-05-16T00:04:19;9.03;;;6.27;;
18532;SDS011;9396;51.510;11.934;2023-05-16T00:06:48;9.63;;;6.87;;
18532;SDS011;9396;51.510;11.934;2023-05-16T00:09:15;8.23;;;6.20;;
18532;SDS011;9396;51.510;11.934;2023-05-16T00:11:41;11.20;;;7.00;;
18532;SDS011;9396;51.510;11.934;2023-05-16T00:14:08;9.73;;;6.67;;
18532;SDS011;9396;51.510;11.934;2023-05-16T00:16:35;10.03;;;7.60;;
18532;SDS011;9396;51.510;11.934;2023-05-16T00:19:02;9.97;;;6.97;;
18532;SDS011;9396;51.510;11.934;2023-05-16T00:21:29;10.17;;;7.03;;
18532;SDS011;9396;51.510;11.934;2023-05-16T00:23:57;9.90;;;6.90;;
18532;SDS011;9396;51.510;11.934;2023-05-16T00:26:24;10.23;;;6.67;;
18532;SDS011;9396;51.510;11.934;2023-05-16T00:28:51;8.50;;;7.03;;
18532;SDS011;9396;51.510;11.934;2023-05-16T00:31:17;11.17;;;7.07;;
18532;SDS011;9396;51.510;11.934;2023-05-16T00:33:44;10.57;;;7.10;;
18532;SDS011;9396;51.510;11.934;2023-05-16T00:36:11;8.73;;;6.70;;
18532;SDS011;9396;51.510;11.934;2023-05-16T00:38:38;13.07;;;7.23;;
18532;SDS011;9396;51.510;11.934;2023-05-16T00:41:06;8.43;;;6.47;;
18532;SDS011;9396;51.510;11.934;2023-05-16T00:43:32;9.03;;;6.77;;
18532;SDS011;9396;51.510;11.934;2023-05-16T00:45:59;11.23;;;6.97;;
18532;SDS011;9396;51.510;11.934;2023-05-16T00:48:26;7.93;;;6.80;;
18532;SDS011;9396;51.510;11.934;2023-05-16T00:50:53;11.37;;;6.90;;
18532;SDS011;9396;51.510;11.934;2023-05-16T00:53:19;7.27;;;6.47;;
18532;SDS011;9396;51.510;11.934;2023-05-16T00:55:46;8.20;;;7.30;;
18532;SDS011;9396;51.510;11.934;2023-05-16T00:58:14;8.33;;;7.50;;
18532;SDS011;9396;51.510;11.934;2023-05-16T01:00:41;10.57;;;8.10;;
18532;SDS011;9396;51.510;11.934;2023-05-16T01:03:09;11.73;;;8.00;;
18532;SDS011;9396;51.510;11.934;2023-05-16T01:05:37;10.20;;;8.60;;
18532;SDS011;9396;51.510;11.934;2023-05-16T01:08:03;10.13;;;8.17;;
18532;SDS011;9396;51.510;11.934;2023-05-16T01:10:31;11.23;;;8.90;;
18532;SDS011;9396;51.510;11.934;2023-05-16T01:13:07;15.03;;;9.63;;
18532;SDS011;9396;51.510;11.934;2023-05-16T01:18:28;11.83;;;10.20;;
18532;SDS011;9396;51.510;11.934;2023-05-16T01:21:03;13.93;;;10.77;;
18532;SDS011;9396;51.510;11.934;2023-05-16T01:23:40;12.20;;;10.90;;
18532;SDS011;9396;51.510;11.934;2023-05-16T01:26:18;18.17;;;11.47;;
18532;SDS011;9396;51.510;11.934;2023-05-16T01:28:46;13.63;;;11.07;;
18532;SDS011;9396;51.510;11.934;2023-05-16T01:31:15;19.30;;;12.70;;
18532;SDS011;9396;51.510;11.934;2023-05-16T01:33:41;13.17;;;11.87;;
18532;SDS011;9396;51.510;11.934;2023-05-16T01:36:10;14.70;;;11.73;;
18532;SDS011;9396;51.510;11.934;2023-05-16T01:38:44;14.10;;;12.00;;
18532;SDS011;9396;51.510;11.934;2023-05-16T01:41:24;15.27;;;12.20;;
18532;SDS011;9396;51.510;11.934;2023-05-16T01:43:56;16.20;;;12.40;;
18532;SDS011;9396;51.510;11.934;2023-05-16T01:46:26;15.17;;;13.37;;
18532;SDS011;9396;51.510;11.934;2023-05-16T01:49:01;16.37;;;14.63;;
18532;SDS011;9396;51.510;11.934;2023-05-16T01:51:40;17.50;;;14.50;;
18532;SDS011;9396;51.510;11.934;2023-05-16T01:54:10;20.03;;;16.90;;
18532;SDS011;9396;51.510;11.934;2023-05-16T01:56:41;18.40;;;15.00;;
18532;SDS011;9396;51.510;11.934;2023-05-16T01:59:15;20.83;;;15.77;;
18532;SDS011;9396;51.510;11.934;2023-05-16T02:01:42;21.23;;;16.63;;
18532;SDS011;9396;51.510;11.934;2023-05-16T02:04:09;20.77;;;15.83;;
18532;SDS011;9396;51.510;11.934;2023-05-16T02:06:38;21.00;;;16.73;;
18532;SDS011;9396;51.510;11.934;2023-05-16T02:09:05;21.90;;;16.60;;
18532;SDS011;9396;51.510;11.934;2023-05-16T02:11:32;21.70;;;18.13;;
18532;SDS011;9396;51.510;11.934;2023-05-16T02:14:00;21.57;;;18.23;;
18532;SDS011;9396;51.510;11.934;2023-05-16T02:16:28;20.23;;;17.80;;
18532;SDS011;9396;51.510;11.934;2023-05-16T02:18:55;21.30;;;17.07;;
18532;SDS011;9396;51.510;11.934;2023-05-16T02:21:21;22.73;;;17.67;;
18532;SDS011;9396;51.510;11.934;2023-05-16T02:23:48;20.13;;;17.47;;
18532;SDS011;9396;51.510;11.934;2023-05-16T02:26:14;22.60;;;19.20;;
18532;SDS011;9396;51.510;11.934;2023-05-16T02:28:41;21.90;;;18.80;;
18532;SDS011;9396;51.510;11.934;2023-05-16T02:31:09;19.93;;;17.00;;
18532;SDS011;9396;51.510;11.934;2023-05-16T02:33:36;21.37;;;17.60;;
18532;SDS011;9396;51.510;11.934;2023-05-16T02:36:03;21.23;;;17.17;;
18532;SDS011;9396;51.510;11.934;2023-05-16T02:38:29;21.80;;;17.10;;
18532;SDS011;9396;51.510;11.934;2023-05-16T02:40:56;19.90;;;16.80;;
18532;SDS011;9396;51.510;11.934;2023-05-16T02:43:23;20.90;;;17.57;;
18532;SDS011;9396;51.510;11.934;2023-05-16T02:45:49;24.70;;;17.57;;
18532;SDS011;9396;51.510;11.934;2023-05-16T02:48:18;21.60;;;17.33;;
18532;SDS011;9396;51.510;11.934;2023-05-16T02:50:45;21.30;;;17.57;;
18532;SDS011;9396;51.510;11.934;2023-05-16T02:53:11;25.23;;;18.53;;
18532;SDS011;9396;51.510;11.934;2023-05-16T02:55:38;21.47;;;16.80;;
18532;SDS011;9396;51.510;11.934;2023-05-16T02:58:04;22.03;;;17.73;;
18532;SDS011;9396;51.510;11.934;2023-05-16T03:00:31;19.47;;;16.80;;
18532;SDS011;9396;51.510;11.934;2023-05-16T03:02:58;20.10;;;17.20;;
18532;SDS011;9396;51.510;11.934;2023-05-16T03:05:26;19.63;;;17.03;;
18532;SDS011;9396;51.510;11.934;2023-05-16T03:07:52;22.97;;;16.87;;
18532;SDS011;9396;51.510;11.934;2023-05-16T03:10:19;22.33;;;18.10;;
18532;SDS011;9396;51.510;11.934;2023-05-16T03:12:46;22.67;;;17.47;;
18532;SDS011;9396;51.510;11.934;2023-05-16T03:15:13;20.20;;;17.10;;
18532;SDS011;9396;51.510;11.934;2023-05-16T03:17:41;22.23;;;17.37;;
18532;SDS011;9396;51.510;11.934;2023-05-16T03:20:08;23.10;;;18.23;;
18532;SDS011;9396;51.510;11.934;2023-05-16T03:22:37;21.20;;;17.13;;
18532;SDS011;9396;51.510;11.934;2023-05-16T03:25:04;20.63;;;16.93;;
18532;SDS011;9396;51.510;11.934;2023-05-16T03:27:31;23.20;;;18.27;;
18532;SDS011;9396;51.510;11.934;2023-05-16T03:29:58;20.77;;;16.60;;
18532;SDS011;9396;51.510;11.934;2023-05-16T03:32:25;21.17;;;16.67;;
18532;SDS011;9396;51.510;11.934;2023-05-16T03:34:51;21.23;;;16.80;;
18532;SDS011;9396;51.510;11.934;2023-05-16T03:37:18;21.30;;;18.10;;
18532;SDS011;9396;51.510;11.934;2023-05-16T03:39:46;18.20;;;15.60;;
18532;SDS011;9396;51.510;11.934;2023-05-16T03:42:13;21.30;;;16.97;;
18532;SDS011;9396;51.510;11.934;2023-05-16T03:44:39;22.00;;;16.30;;
18532;SDS011;9396;51.510;11.934;2023-05-16T03:47:06;20.33;;;15.57;;
18532;SDS011;9396;51.510;11.934;2023-05-16T03:49:33;18.33;;;15.50;;
18532;SDS011;9396;51.510;11.934;2023-05-16T03:52:01;18.03;;;15.67;;
18532;SDS011;9396;51.510;11.934;2023-05-16T03:54:27;19.27;;;16.17;;
18532;SDS011;9396;51.510;11.934;2023-05-16T03:56:55;18.67;;;15.93;;
18532;SDS011;9396;51.510;11.934;2023-05-16T03:59:22;19.70;;;15.57;;
18532;SDS011;9396;51.510;11.934;2023-05-16T04:01:49;17.73;;;14.83;;
18532;SDS011;9396;51.510;11.934;2023-05-16T04:04:15;18.20;;;15.23;;
18532;SDS011;9396;51.510;11.934;2023-05-16T04:06:42;17.07;;;14.77;;
18532;SDS011;9396;51.510;11.934;2023-05-16T04:09:08;19.00;;;15.93;;
18532;SDS011;9396;51.510;11.934;2023-05-16T04:11:35;17.83;;;14.33;;
18532;SDS011;9396;51.510;11.934;2023-05-16T04:14:04;17.47;;;14.73;;
18532;SDS011;9396;51.510;11.934;2023-05-16T04:16:31;16.70;;;14.87;;
18532;SDS011;9396;51.510;11.934;2023-05-16T04:18:58;21.63;;;14.57;;
18532;SDS011;9396;51.510;11.934;2023-05-16T04:21:24;15.47;;;13.47;;
18532;SDS011;9396;51.510;11.934;2023-05-16T04:23:51;19.33;;;14.53;;
18532;SDS011;9396;51.510;11.934;2023-05-16T04:26:17;16.87;;;14.60;;
18532;SDS011;9396;51.510;11.934;2023-05-16T04:28:46;16.83;;;14.37;;
18532;SDS011;9396;51.510;11.934;2023-05-16T04:31:14;17.80;;;14.17;;
18532;SDS011;9396;51.510;11.934;2023-05-16T04:33:41;17.33;;;13.03;;
18532;SDS011;9396;51.510;11.934;2023-05-16T04:36:08;17.97;;;13.83;;
18532;SDS011;9396;51.510;11.934;2023-05-16T04:38:34;16.70;;;13.03;;
18532;SDS011;9396;51.510;11.934;2023-05-16T04:41:01;14.60;;;13.10;;
18532;SDS011;9396;51.510;11.934;2023-05-16T04:43:28;14.40;;;12.53;;
18532;SDS011;9396;51.510;11.934;2023-05-16T04:45:56;15.67;;;12.50;;
18532;SDS011;9396;51.510;11.934;2023-05-16T04:48:24;13.83;;;11.43;;
18532;SDS011;9396;51.510;11.934;2023-05-16T04:50:50;13.13;;;11.50;;
18532;SDS011;9396;51.510;11.934;2023-05-16T04:53:17;12.47;;;9.93;;
18532;SDS011;9396;51.510;11.934;2023-05-16T04:55:44;12.00;;;9.97;;
18532;SDS011;9396;51.510;11.934;2023-05-16T04:58:11;10.97;;;9.53;;
18532;SDS011;9396;51.510;11.934;2023-05-16T05:00:38;9.63;;;8.37;;
18532;SDS011;9396;51.510;11.934;2023-05-16T05:03:05;10.00;;;7.23;;
18532;SDS011;9396;51.510;11.934;2023-05-16T05:05:33;8.27;;;6.87;;
18532;SDS011;9396;51.510;11.934;2023-05-16T05:07:59;6.80;;;5.57;;
18532;SDS011;9396;51.510;11.934;2023-05-16T05:10:26;8.03;;;5.07;;
18532;SDS011;9396;51.510;11.934;2023-05-16T05:12:53;6.40;;;5.20;;
18532;SDS011;9396;51.510;11.934;2023-05-16T05:15:20;6.37;;;5.23;;
18532;SDS011;9396;51.510;11.934;2023-05-16T05:17:46;17.87;;;4.90;;
18532;SDS011;9396;51.510;11.934;2023-05-16T05:20:13;7.60;;;4.40;;
18532;SDS011;9396;51.510;11.934;2023-05-16T05:22:41;6.97;;;4.13;;
18532;SDS011;9396;51.510;11.934;2023-05-16T05:25:08;6.20;;;4.20;;
18532;SDS011;9396;51.510;11.934;2023-05-16T05:27:35;5.47;;;3.93;;
18532;SDS011;9396;51.510;11.934;2023-05-16T05:30:02;5.10;;;4.20;;
18532;SDS011;9396;51.510;11.934;2023-05-16T05:32:29;5.47;;;4.10;;
18532;SDS011;9396;51.510;11.934;2023-05-16T05:34:56;9.90;;;4.13;;
18532;SDS011;9396;51.510;11.934;2023-05-16T05:37:22;5.60;;;4.43;;
18532;SDS011;9396;51.510;11.934;2023-05-16T05:39:50;5.77;;;4.37;;
18532;SDS011;9396;51.510;11.934;2023-05-16T05:42:17;5.43;;;4.20;;
18532;SDS011;9396;51.510;11.934;2023-05-16T05:44:44;7.87;;;4.53;;
18532;SDS011;9396;51.510;11.934;2023-05-16T05:47:10;6.87;;;4.40;;
18532;SDS011;9396;51.510;11.934;2023-05-16T05:49:37;6.37;;;4.50;;
18532;SDS011;9396;51.510;11.934;2023-05-16T05:52:04;6.53;;;4.53;;
18532;SDS011;9396;51.510;11.934;2023-05-16T05:54:31;7.10;;;4.80;;
18532;SDS011;9396;51.510;11.934;2023-05-16T05:56:59;5.47;;;4.53;;
18532;SDS011;9396;51.510;11.934;2023-05-16T05:59:26;9.60;;;4.07;;
18532;SDS011;9396;51.510;11.934;2023-05-16T06:01:53;5.30;;;4.30;;
18532;SDS011;9396;51.510;11.934;2023-05-16T06:04:19;4.53;;;3.70;;
18532;SDS011;9396;51.510;11.934;2023-05-16T06:06:47;5.53;;;3.53;;
18532;SDS011;9396;51.510;11.934;2023-05-16T06:09:13;5.70;;;4.10;;
18532;SDS011;9396;51.510;11.934;2023-05-16T06:11:40;5.37;;;3.47;;
18532;SDS011;9396;51.510;11.934;2023-05-16T06:14:08;4.43;;;3.40;;
18532;SDS011;9396;51.510;11.934;2023-05-16T06:16:35;6.23;;;3.37;;
18532;SDS011;9396;51.510;11.934;2023-05-16T06:19:03;5.23;;;3.67;;
18532;SDS011;9396;51.510;11.934;2023-05-16T06:21:30;7.07;;;4.27;;
18532;SDS011;9396;51.510;11.934;2023-05-16T06:23:57;5.70;;;3.40;;
18532;SDS011;9396;51.510;11.934;2023-05-16T06:26:24;7.40;;;3.73;;
18532;SDS011;9396;51.510;11.934;2023-05-16T06:28:50;6.20;;;3.33;;
18532;SDS011;9396;51.510;11.934;2023-05-16T06:31:18;4.20;;;3.20;;
18532;SDS011;9396;51.510;11.934;2023-05-16T06:33:45;6.33;;;3.03;;
18532;SDS011;9396;51.510;11.934;2023-05-16T06:36:11;5.83;;;3.00;;
18532;SDS011;9396;51.510;11.934;2023-05-16T06:38:38;6.43;;;3.10;;
18532;SDS011;9396;51.510;11.934;2023-05-16T06:41:05;5.27;;;2.73;;
18532;SDS011;9396;51.510;11.934;2023-05-16T06:43:31;5.60;;;3.10;;
18532;SDS011;9396;51.510;11.934;2023-05-16T06:45:58;3.87;;;2.37;;
18532;SDS011;9396;51.510;11.934;2023-05-16T06:48:26;5.40;;;2.77;;
18532;SDS011;9396;51.510;11.934;2023-05-16T06:50:53;8.30;;;3.23;;
18532;SDS011;9396;51.510;11.934;2023-05-16T06:53:19;5.20;;;2.60;;
18532;SDS011;9396;51.510;11.934;2023-05-16T06:55:46;7.23;;;2.63;;
18532;SDS011;9396;51.510;11.934;2023-05-16T06:58:13;5.50;;;2.70;;
18532;SDS011;9396;51.510;11.934;2023-05-16T07:00:39;4.43;;;2.57;;
18532;SDS011;9396;51.510;11.934;2023-05-16T07:03:06;6.03;;;2.40;;
18532;SDS011;9396;51.510;11.934;2023-05-16T07:05:34;4.07;;;2.40;;
18532;SDS011;9396;51.510;11.934;2023-05-16T07:08:00;3.47;;;2.53;;
18532;SDS011;9396;51.510;11.934;2023-05-16T07:10:27;4.27;;;2.60;;
18532;SDS011;9396;51.510;11.934;2023-05-16T07:12:54;3.37;;;2.07;;
18532;SDS011;9396;51.510;11.934;2023-05-16T07:15:20;2.77;;;2.20;;
18532;SDS011;9396;51.510;11.934;2023-05-16T07:17:47;2.40;;;2.20;;
18532;SDS011;9396;51.510;11.934;2023-05-16T07:20:14;5.73;;;2.23;;
18532;SDS011;9396;51.510;11.934;2023-05-16T07:22:42;2.60;;;2.20;;
18532;SDS011;9396;51.510;11.934;2023-05-16T07:25:09;4.30;;;2.10;;
18532;SDS011;9396;51.510;11.934;2023-05-16T07:27:37;3.37;;;1.90;;
18532;SDS011;9396;51.510;11.934;2023-05-16T07:30:05;4.67;;;2.10;;
18532;SDS011;9396;51.510;11.934;2023-05-16T07:32:33;3.00;;;1.73;;
18532;SDS011;9396;51.510;11.934;2023-05-16T07:34:59;1.97;;;1.60;;
18532;SDS011;9396;51.510;11.934;2023-05-16T07:37:26;3.83;;;1.80;;
18532;SDS011;9396;51.510;11.934;2023-05-16T07:39:54;2.87;;;1.70;;
18532;SDS011;9396;51.510;11.934;2023-05-16T07:42:21;2.77;;;1.47;;
18532;SDS011;9396;51.510;11.934;2023-05-16T07:44:47;2.97;;;1.67;;
18532;SDS011;9396;51.510;11.934;2023-05-16T07:47:14;1.80;;;1.20;;
18532;SDS011;9396;51.510;11.934;2023-05-16T07:49:41;3.60;;;1.17;;
18532;SDS011;9396;51.510;11.934;2023-05-16T07:52:07;2.53;;;1.17;;
18532;SDS011;9396;51.510;11.934;2023-05-16T07:54:34;1.67;;;1.20;;
18532;SDS011;9396;51.510;11.934;2023-05-16T07:57:02;2.03;;;1.10;;
18532;SDS011;9396;51.510;11.934;2023-05-16T07:59:29;2.43;;;1.00;;
18532;SDS011;9396;51.510;11.934;2023-05-16T08:01:56;2.43;;;0.87;;
18532;SDS011;9396;51.510;11.934;2023-05-16T08:04:23;1.80;;;0.90;;
18532;SDS011;9396;51.510;11.934;2023-05-16T08:06:49;1.73;;;0.90;;
18532;SDS011;9396;51.510;11.934;2023-05-16T08:09:16;3.17;;;0.80;;
18532;SDS011;9396;51.510;11.934;2023-05-16T08:11:43;3.47;;;0.97;;
18532;SDS011;9396;51.510;11.934;2023-05-16T08:14:11;2.63;;;0.80;;
18532;SDS011;9396;51.510;11.934;2023-05-16T08:16:38;1.47;;;0.70;;
18532;SDS011;9396;51.510;11.934;2023-05-16T08:19:05;1.00;;;0.73;;
18532;SDS011;9396;51.510;11.934;2023-05-16T08:21:32;1.00;;;0.70;;
18532;SDS011;9396;51.510;11.934;2023-05-16T08:23:58;2.57;;;0.87;;
18532;SDS011;9396;51.510;11.934;2023-05-16T08:26:25;2.47;;;0.90;;
18532;SDS011;9396;51.510;11.934;2023-05-16T08:28:51;2.30;;;0.77;;
18532;SDS011;9396;51.510;11.934;2023-05-16T08:31:19;1.10;;;0.67;;
18532;SDS011;9396;51.510;11.934;2023-05-16T08:33:46;2.23;;;0.90;;
18532;SDS011;9396;51.510;11.934;2023-05-16T08:36:13;2.07;;;0.90;;
18532;SDS011;9396;51.510;11.934;2023-05-16T08:38:40;1.50;;;0.90;;
18532;SDS011;9396;51.510;11.934;2023-05-16T08:41:06;2.53;;;1.00;;
18532;SDS011;9396;51.510;11.934;2023-05-16T08:43:33;2.33;;;0.90;;
18532;SDS011;9396;51.510;11.934;2023-05-16T08:46:00;2.17;;;1.00;;
18532;SDS011;9396;51.510;11.934;2023-05-16T08:48:28;3.50;;;1.87;;
18532;SDS011;9396;51.510;11.934;2023-05-16T08:50:58;6.17;;;1.50;;
18532;SDS011;9396;51.510;11.934;2023-05-16T08:53:31;3.27;;;0.93;;
18532;SDS011;9396;51.510;11.934;2023-05-16T08:56:05;1.90;;;0.90;;
18532;SDS011;9396;51.510;11.934;2023-05-16T08:58:33;3.90;;;1.20;;
18532;SDS011;9396;51.510;11.934;2023-05-16T09:01:00;2.63;;;1.20;;
18532;SDS011;9396;51.510;11.934;2023-05-16T09:03:32;6.43;;;1.20;;
18532;SDS011;9396;51.510;11.934;2023-05-16T09:05:59;4.90;;;1.30;;
18532;SDS011;9396;51.510;11.934;2023-05-16T09:08:26;2.57;;;1.10;;
18532;SDS011;9396;51.510;11.934;2023-05-16T09:10:53;3.10;;;1.43;;
18532;SDS011;9396;51.510;11.934;2023-05-16T09:13:20;4.33;;;1.40;;
18532;SDS011;9396;51.510;11.934;2023-05-16T09:15:47;6.83;;;1.40;;
18532;SDS011;9396;51.510;11.934;2023-05-16T09:18:34;5.07;;;1.60;;
18532;SDS011;9396;51.510;11.934;2023-05-16T09:21:01;3.33;;;1.50;;
18532;SDS011;9396;51.510;11.934;2023-05-16T09:23:28;7.10;;;2.30;;
18532;SDS011;9396;51.510;11.934;2023-05-16T09:25:56;4.40;;;2.00;;
18532;SDS011;9396;51.510;11.934;2023-05-16T09:28:23;2.70;;;1.80;;
18532;SDS011;9396;51.510;11.934;2023-05-16T09:30:51;7.53;;;2.20;;
18532;SDS011;9396;51.510;11.934;2023-05-16T09:33:21;4.80;;;1.80;;
18532;SDS011;9396;51.510;11.934;2023-05-16T09:35:54;6.20;;;1.77;;
18532;SDS011;9396;51.510;11.934;2023-05-16T09:38:23;3.60;;;1.67;;
18532;SDS011;9396;51.510;11.934;2023-05-16T09:40:51;7.27;;;1.93;;
18532;SDS011;9396;51.510;11.934;2023-05-16T09:43:19;8.50;;;3.03;;
18532;SDS011;9396;51.510;11.934;2023-05-16T09:45:48;5.57;;;2.20;;
18532;SDS011;9396;51.510;11.934;2023-05-16T09:48:15;6.87;;;2.40;;
18532;SDS011;9396;51.510;11.934;2023-05-16T09:50:45;9.27;;;2.27;;
18532;SDS011;9396;51.510;11.934;2023-05-16T09:53:15;7.87;;;2.57;;
18532;SDS011;9396;51.510;11.934;2023-05-16T09:55:41;9.17;;;2.23;;
18532;SDS011;9396;51.510;11.934;2023-05-16T09:58:08;7.17;;;2.20;;
18532;SDS011;9396;51.510;11.934;2023-05-16T10:00:35;8.93;;;2.00;;
18532;SDS011;9396;51.510;11.934;2023-05-16T10:03:03;8.63;;;2.37;;
18532;SDS011;9396;51.510;11.934;2023-05-16T10:05:30;7.73;;;2.23;;
18532;SDS011;9396;51.510;11.934;2023-05-16T10:07:57;7.73;;;1.93;;
18532;SDS011;9396;51.510;11.934;2023-05-16T10:10:25;8.23;;;1.97;;
18532;SDS011;9396;51.510;11.934;2023-05-16T10:12:52;10.87;;;1.90;;
18532;SDS011;9396;51.510;11.934;2023-05-16T10:15:22;5.17;;;1.50;;
18532;SDS011;9396;51.510;11.934;2023-05-16T10:17:50;4.50;;;1.77;;
18532;SDS011;9396;51.510;11.934;2023-05-16T10:20:18;5.57;;;2.20;;
18532;SDS011;9396;51.510;11.934;2023-05-16T10:22:46;5.63;;;1.83;;
18532;SDS011;9396;51.510;11.934;2023-05-16T10:25:16;6.37;;;2.03;;
18532;SDS011;9396;51.510;11.934;2023-05-16T10:27:50;8.30;;;1.53;;
18532;SDS011;9396;51.510;11.934;2023-05-16T10:30:17;11.70;;;1.83;;
18532;SDS011;9396;51.510;11.934;2023-05-16T10:32:45;12.80;;;2.27;;
18532;SDS011;9396;51.510;11.934;2023-05-16T10:35:13;6.83;;;1.83;;
18532;SDS011;9396;51.510;11.934;2023-05-16T10:37:39;8.23;;;1.80;;
18532;SDS011;9396;51.510;11.934;2023-05-16T10:40:07;7.47;;;1.80;;
18532;SDS011;9396;51.510;11.934;2023-05-16T10:42:35;10.87;;;2.23;;
18532;SDS011;9396;51.510;11.934;2023-05-16T10:45:09;7.93;;;2.00;;
18532;SDS011;9396;51.510;11.934;2023-05-16T10:47:49;11.50;;;2.27;;
18532;SDS011;9396;51.510;11.934;2023-05-16T10:50:29;8.80;;;2.23;;
18532;SDS011;9396;51.510;11.934;2023-05-16T10:52:56;9.83;;;1.77;;
18532;SDS011;9396;51.510;11.934;2023-05-16T10:55:39;8.03;;;1.63;;
18532;SDS011;9396;51.510;11.934;2023-05-16T10:58:09;9.77;;;2.10;;
18532;SDS011;9396;51.510;11.934;2023-05-16T11:00:37;9.87;;;2.30;;
18532;SDS011;9396;51.510;11.934;2023-05-16T11:03:05;8.03;;;1.87;;
18532;SDS011;9396;51.510;11.934;2023-05-16T11:05:32;10.23;;;2.20;;
18532;SDS011;9396;51.510;11.934;2023-05-16T11:08:02;6.20;;;1.70;;
18532;SDS011;9396;51.510;11.934;2023-05-16T11:10:30;4.73;;;1.47;;
18532;SDS011;9396;51.510;11.934;2023-05-16T11:13:01;6.53;;;1.40;;
18532;SDS011;9396;51.510;11.934;2023-05-16T11:15:32;9.47;;;1.73;;
18532;SDS011;9396;51.510;11.934;2023-05-16T11:18:04;6.43;;;1.63;;
18532;SDS011;9396;51.510;11.934;2023-05-16T11:20:32;7.30;;;1.60;;
18532;SDS011;9396;51.510;11.934;2023-05-16T11:23:18;3.63;;;1.60;;
18532;SDS011;9396;51.510;11.934;2023-05-16T11:25:50;5.10;;;1.50;;
18532;SDS011;9396;51.510;11.934;2023-05-16T11:28:19;5.27;;;1.73;;
18532;SDS011;9396;51.510;11.934;2023-05-16T11:30:47;9.87;;;2.13;;
18532;SDS011;9396;51.510;11.934;2023-05-16T11:33:16;7.30;;;1.53;;
18532;SDS011;9396;51.510;11.934;2023-05-16T11:35:43;7.23;;;1.87;;
18532;SDS011;9396;51.510;11.934;2023-05-16T11:38:25;4.60;;;1.47;;
18532;SDS011;9396;51.510;11.934;2023-05-16T11:40:52;8.67;;;1.80;;
18532;SDS011;9396;51.510;11.934;2023-05-16T11:43:18;8.80;;;1.70;;
18532;SDS011;9396;51.510;11.934;2023-05-16T11:45:45;10.20;;;1.70;;
18532;SDS011;9396;51.510;11.934;2023-05-16T11:48:12;6.27;;;1.27;;
18532;SDS011;9396;51.510;11.934;2023-05-16T11:50:40;7.03;;;1.60;;
18532;SDS011;9396;51.510;11.934;2023-05-16T11:53:07;4.60;;;1.40;;
18532;SDS011;9396;51.510;11.934;2023-05-16T11:55:34;8.90;;;1.70;;
18532;SDS011;9396;51.510;11.934;2023-05-16T11:58:01;7.20;;;1.90;;
18532;SDS011;9396;51.510;11.934;2023-05-16T12:00:27;6.30;;;1.40;;
18532;SDS011;9396;51.510;11.934;2023-05-16T12:02:57;7.37;;;2.00;;
18532;SDS011;9396;51.510;11.934;2023-05-16T12:05:26;4.63;;;1.83;;
18532;SDS011;9396;51.510;11.934;2023-05-16T12:07:56;6.70;;;1.60;;
18532;SDS011;9396;51.510;11.934;2023-05-16T12:10:23;4.47;;;1.50;;
18532;SDS011;9396;51.510;11.934;2023-05-16T12:12:50;5.57;;;1.43;;
18532;SDS011;9396;51.510;11.934;2023-05-16T12:15:17;8.63;;;1.80;;
18532;SDS011;9396;51.510;11.934;2023-05-16T12:17:45;8.50;;;1.97;;
18532;SDS011;9396;51.510;11.934;2023-05-16T12:20:12;7.17;;;1.60;;
18532;SDS011;9396;51.510;11.934;2023-05-16T12:22:41;7.27;;;1.57;;
18532;SDS011;9396;51.510;11.934;2023-05-16T12:25:24;9.27;;;1.67;;
18532;SDS011;9396;51.510;11.934;2023-05-16T12:27:51;6.43;;;1.57;;
18532;SDS011;9396;51.510;11.934;2023-05-16T12:30:20;9.57;;;1.90;;
18532;SDS011;9396;51.510;11.934;2023-05-16T12:32:51;7.43;;;1.77;;
18532;SDS011;9396;51.510;11.934;2023-05-16T12:35:18;5.43;;;1.63;;
18532;SDS011;9396;51.510;11.934;2023-05-16T12:37:45;7.13;;;1.80;;
18532;SDS011;9396;51.510;11.934;2023-05-16T12:40:12;4.57;;;1.33;;
18532;SDS011;9396;51.510;11.934;2023-05-16T12:42:40;9.10;;;2.07;;
18532;SDS011;9396;51.510;11.934;2023-05-16T12:45:13;7.43;;;2.00;;
18532;SDS011;9396;51.510;11.934;2023-05-16T12:47:41;6.80;;;1.77;;
18532;SDS011;9396;51.510;11.934;2023-05-16T12:50:08;3.50;;;1.70;;
18532;SDS011;9396;51.510;11.934;2023-05-16T12:52:36;8.77;;;1.63;;
18532;SDS011;9396;51.510;11.934;2023-05-16T12:55:03;9.67;;;1.30;;
18532;SDS011;9396;51.510;11.934;2023-05-16T12:57:31;4.53;;;1.10;;
18532;SDS011;9396;51.510;11.934;2023-05-16T12:59:59;5.27;;;1.13;;
18532;SDS011;9396;51.510;11.934;2023-05-16T13:02:25;6.40;;;1.37;;
18532;SDS011;9396;51.510;11.934;2023-05-16T13:04:52;6.03;;;1.77;;
18532;SDS011;9396;51.510;11.934;2023-05-16T13:07:18;7.97;;;2.00;;
18532;SDS011;9396;51.510;11.934;2023-05-16T13:09:45;6.00;;;1.43;;
18532;SDS011;9396;51.510;11.934;2023-05-16T13:12:12;6.10;;;1.47;;
18532;SDS011;9396;51.510;11.934;2023-05-16T13:14:39;6.07;;;1.53;;
18532;SDS011;9396;51.510;11.934;2023-05-16T13:17:08;7.33;;;1.70;;
18532;SDS011;9396;51.510;11.934;2023-05-16T13:19:35;7.00;;;1.53;;
18532;SDS011;9396;51.510;11.934;2023-05-16T13:22:02;4.77;;;1.10;;
18532;SDS011;9396;51.510;11.934;2023-05-16T13:24:29;4.97;;;1.37;;
18532;SDS011;9396;51.510;11.934;2023-05-16T13:26:56;4.97;;;1.30;;
18532;SDS011;9396;51.510;11.934;2023-05-16T13:29:23;5.33;;;1.10;;
18532;SDS011;9396;51.510;11.934;2023-05-16T13:31:50;6.43;;;1.37;;
18532;SDS011;9396;51.510;11.934;2023-05-16T13:34:18;4.73;;;1.00;;
18532;SDS011;9396;51.510;11.934;2023-05-16T13:36:44;6.23;;;1.43;;
18532;SDS011;9396;51.510;11.934;2023-05-16T13:39:13;4.43;;;1.40;;
18532;SDS011;9396;51.510;11.934;2023-05-16T13:41:39;5.13;;;1.10;;
18532;SDS011;9396;51.510;11.934;2023-05-16T13:44:06;4.50;;;1.13;;
18532;SDS011;9396;51.510;11.934;2023-05-16T13:46:33;5.77;;;1.33;;
18532;SDS011;9396;51.510;11.934;2023-05-16T13:49:00;3.13;;;1.10;;
18532;SDS011;9396;51.510;11.934;2023-05-16T13:51:28;4.47;;;1.10;;
18532;SDS011;9396;51.510;11.934;2023-05-16T13:53:55;6.33;;;0.93;;
18532;SDS011;9396;51.510;11.934;2023-05-16T13:56:22;4.23;;;1.13;;
18532;SDS011;9396;51.510;11.934;2023-05-16T13:58:49;3.80;;;1.13;;
18532;SDS011;9396;51.510;11.934;2023-05-16T14:01:16;2.50;;;1.17;;
18532;SDS011;9396;51.510;11.934;2023-05-16T14:03:43;8.57;;;1.43;;
18532;SDS011;9396;51.510;11.934;2023-05-16T14:06:10;6.60;;;0.90;;
18532;SDS011;9396;51.510;11.934;2023-05-16T14:08:37;5.43;;;1.00;;
18532;SDS011;9396;51.510;11.934;2023-05-16T14:11:04;4.47;;;1.20;;
18532;SDS011;9396;51.510;11.934;2023-05-16T14:13:31;2.57;;;1.17;;
18532;SDS011;9396;51.510;11.934;2023-05-16T14:15:57;4.30;;;1.07;;
18532;SDS011;9396;51.510;11.934;2023-05-16T14:18:24;3.50;;;1.10;;
18532;SDS011;9396;51.510;11.934;2023-05-16T14:20:51;6.60;;;1.40;;
18532;SDS011;9396;51.510;11.934;2023-05-16T14:23:20;3.73;;;1.33;;
18532;SDS011;9396;51.510;11.934;2023-05-16T14:25:48;2.97;;;1.10;;
18532;SDS011;9396;51.510;11.934;2023-05-16T14:28:15;1.97;;;0.97;;
18532;SDS011;9396;51.510;11.934;2023-05-16T14:30:41;4.70;;;1.27;;
18532;SDS011;9396;51.510;11.934;2023-05-16T14:33:08;3.70;;;0.93;;
18532;SDS011;9396;51.510;11.934;2023-05-16T14:35:35;2.67;;;1.10;;
18532;SDS011;9396;51.510;11.934;2023-05-16T14:38:02;4.90;;;1.07;;
18532;SDS011;9396;51.510;11.934;2023-05-16T14:40:29;4.63;;;1.37;;
18532;SDS011;9396;51.510;11.934;2023-05-16T14:42:57;5.13;;;1.10;;
18532;SDS011;9396;51.510;11.934;2023-05-16T14:45:23;2.83;;;1.07;;
18532;SDS011;9396;51.510;11.934;2023-05-16T14:47:50;5.40;;;1.10;;